Time;durP1;ratioP1;P1;durP2;ratioP2;P2;SDS_P1;SDS_P2;PMS_P1;PMS_P2;Temp;Humidity;BMP_temperature;BMP_pressure;BME280_temperature;BME280_humidity;BME280_pressure;Samples;Min_cycle;Max_cycle;Signal;HPM_P1;HPM_P2
2021/07/02 00:01:12;;;;;;;11.32;2.15;;;43.40;26.00;;;;;;5084112;28;21668;-65
2021/07/02 00:03:38;;;;;;;9.65;2.00;;;43.30;25.90;;;;;;5085132;28;20080;-65
2021/07/02 00:06:06;;;;;;;9.18;2.08;;;43.20;25.70;;;;;;5080032;28;20200;-66
2021/07/02 00:08:33;;;;;;;8.55;1.80;;;43.20;25.60;;;;;;5080599;28;20130;-67
2021/07/02 00:11:02;;;;;;;11.02;1.70;;;43.10;25.80;;;;;;5079758;28;20083;-65
2021/07/02 00:13:28;;;;;;;15.40;2.10;;;42.90;25.50;;;;;;5077003;28;20510;-65
2021/07/02 00:15:55;;;;;;;16.05;1.98;;;42.90;25.90;;;;;;5084934;28;20081;-65
2021/07/02 00:18:22;;;;;;;11.50;2.53;;;43.00;26.10;;;;;;5081545;28;20099;-65
2021/07/02 00:20:48;;;;;;;10.80;2.10;;;42.90;25.60;;;;;;5083081;28;20108;-65
2021/07/02 00:23:15;;;;;;;14.77;1.95;;;42.80;25.70;;;;;;5084291;28;20099;-68
2021/07/02 00:25:41;;;;;;;11.30;2.05;;;42.80;26.00;;;;;;5082194;28;20080;-67
2021/07/02 00:28:08;;;;;;;9.20;1.70;;;42.60;25.60;;;;;;5089055;28;20163;-66
2021/07/02 00:30:35;;;;;;;11.57;2.17;;;42.40;26.00;;;;;;5088133;28;20123;-66
2021/07/02 00:33:02;;;;;;;12.18;1.98;;;42.50;26.40;;;;;;5091660;28;20065;-67
2021/07/02 00:35:29;;;;;;;14.77;2.05;;;42.40;26.60;;;;;;5088752;28;20104;-66
2021/07/02 00:37:55;;;;;;;9.70;1.77;;;42.40;26.00;;;;;;5090749;28;20068;-66
2021/07/02 00:40:22;;;;;;;7.20;1.52;;;42.20;26.30;;;;;;5087989;28;20084;-67
2021/07/02 00:42:48;;;;;;;6.75;1.90;;;42.10;26.30;;;;;;5085305;28;20103;-66
2021/07/02 00:45:15;;;;;;;10.02;1.85;;;42.00;26.20;;;;;;5085065;28;20487;-67
2021/07/02 00:47:43;;;;;;;11.93;1.90;;;42.00;26.20;;;;;;5085831;28;20508;-67
2021/07/02 00:50:10;;;;;;;15.68;1.92;;;42.00;27.10;;;;;;5086628;28;20101;-68
2021/07/02 00:52:37;;;;;;;14.60;2.33;;;41.90;27.10;;;;;;5082355;28;20065;-66
2021/07/02 00:55:04;;;;;;;8.07;1.85;;;41.90;26.70;;;;;;5082009;28;20077;-67
2021/07/02 00:57:32;;;;;;;8.90;2.03;;;41.80;26.70;;;;;;5086913;28;20414;-68
2021/07/02 00:59:58;;;;;;;19.30;2.20;;;41.80;26.70;;;;;;5081545;28;20076;-67
2021/07/02 01:02:25;;;;;;;15.13;2.70;;;41.70;27.00;;;;;;5087729;28;20089;-67
2021/07/02 01:04:51;;;;;;;11.65;2.10;;;41.80;27.50;;;;;;5087274;28;20097;-66
2021/07/02 01:07:18;;;;;;;13.10;2.05;;;41.70;27.40;;;;;;5083919;28;20069;-66
2021/07/02 01:09:46;;;;;;;12.15;1.77;;;41.50;27.40;;;;;;5082016;28;20183;-66
2021/07/02 01:12:13;;;;;;;33.17;2.97;;;41.30;27.30;;;;;;5090295;28;20077;-67
2021/07/02 01:14:41;;;;;;;14.57;2.33;;;41.30;27.60;;;;;;5082667;28;20073;-69
2021/07/02 01:17:07;;;;;;;12.20;2.08;;;41.20;28.10;;;;;;5083023;28;20438;-67
2021/07/02 01:19:34;;;;;;;14.15;2.40;;;41.20;27.80;;;;;;5086561;28;20160;-66
2021/07/02 01:22:02;;;;;;;20.40;2.60;;;41.10;28.10;;;;;;5085218;28;20061;-66
2021/07/02 01:24:28;;;;;;;12.38;2.17;;;41.10;27.70;;;;;;5081932;28;20073;-65
2021/07/02 01:26:55;;;;;;;15.43;2.42;;;41.10;27.60;;;;;;5084426;28;20494;-66
2021/07/02 01:29:21;;;;;;;16.85;2.30;;;40.90;27.80;;;;;;5083358;28;20089;-67
2021/07/02 01:31:49;;;;;;;14.18;2.60;;;40.80;28.20;;;;;;5085128;28;20095;-68
2021/07/02 01:34:15;;;;;;;10.50;2.35;;;40.70;28.40;;;;;;5082713;28;20541;-67
2021/07/02 01:36:42;;;;;;;11.90;2.30;;;40.60;28.50;;;;;;5067361;28;20081;-67
2021/07/02 01:39:08;;;;;;;9.60;2.05;;;40.50;28.80;;;;;;5084329;28;20080;-66
2021/07/02 01:41:35;;;;;;;11.68;2.25;;;40.40;29.10;;;;;;5083449;28;20627;-66
2021/07/02 01:44:02;;;;;;;18.08;2.03;;;40.20;29.00;;;;;;5082993;28;20077;-67
2021/07/02 01:46:28;;;;;;;13.93;1.95;;;40.20;29.00;;;;;;5083796;28;20080;-65
2021/07/02 01:48:55;;;;;;;13.30;2.13;;;40.70;28.40;;;;;;5083011;28;20089;-64
2021/07/02 01:51:21;;;;;;;19.45;2.20;;;40.70;28.80;;;;;;5081064;28;20445;-65
2021/07/02 01:53:48;;;;;;;13.07;1.83;;;41.00;28.50;;;;;;5085674;28;20163;-64
2021/07/02 01:56:15;;;;;;;20.90;2.67;;;41.00;28.10;;;;;;5082097;28;20160;-66
2021/07/02 01:58:41;;;;;;;18.17;2.80;;;41.20;28.10;;;;;;5082959;28;20068;-64
2021/07/02 02:01:08;;;;;;;22.13;2.80;;;41.00;27.60;;;;;;5083361;28;20083;-65
2021/07/02 02:03:34;;;;;;;11.02;2.05;;;40.70;28.30;;;;;;5088229;28;20194;-65
2021/07/02 02:06:00;;;;;;;17.27;2.50;;;40.80;27.90;;;;;;5086231;28;20062;-64
2021/07/02 02:08:27;;;;;;;17.55;2.42;;;40.70;29.00;;;;;;5088557;28;20086;-64
2021/07/02 02:10:53;;;;;;;13.55;1.88;;;40.80;28.90;;;;;;5085098;28;20077;-65
2021/07/02 02:13:20;;;;;;;16.60;2.35;;;40.60;28.80;;;;;;5080527;28;20090;-66
2021/07/02 02:15:46;;;;;;;11.95;2.28;;;40.60;28.70;;;;;;5083534;28;20076;-66
2021/07/02 02:18:13;;;;;;;11.40;1.48;;;40.50;28.70;;;;;;5071493;28;20561;-65
2021/07/02 02:20:40;;;;;;;12.00;2.00;;;40.30;28.70;;;;;;5085470;28;20074;-67
2021/07/02 02:23:07;;;;;;;13.45;2.10;;;40.20;29.10;;;;;;5089021;28;20075;-66
2021/07/02 02:25:33;;;;;;;11.35;2.10;;;40.10;29.10;;;;;;5086393;28;20151;-65
2021/07/02 02:28:00;;;;;;;14.35;1.70;;;40.00;29.00;;;;;;5082117;28;20080;-66
2021/07/02 02:30:28;;;;;;;12.77;1.77;;;39.80;29.40;;;;;;5085239;28;20642;-65
2021/07/02 02:32:54;;;;;;;15.45;2.05;;;39.70;29.60;;;;;;5087042;28;20081;-64
2021/07/02 02:35:21;;;;;;;19.10;2.83;;;39.50;29.50;;;;;;5083368;28;20069;-66
2021/07/02 02:37:47;;;;;;;22.50;2.90;;;39.50;29.50;;;;;;5083177;28;20430;-65
2021/07/02 02:40:14;;;;;;;9.82;1.85;;;39.40;29.60;;;;;;5083221;28;20162;-63
2021/07/02 02:42:41;;;;;;;9.20;2.10;;;39.40;29.60;;;;;;5079584;28;20099;-64
2021/07/02 02:45:07;;;;;;;19.73;1.90;;;39.30;29.90;;;;;;5082189;28;20155;-65
2021/07/02 02:47:34;;;;;;;12.15;2.28;;;39.10;30.00;;;;;;5081033;28;20069;-65
2021/07/02 02:50:00;;;;;;;13.20;2.53;;;39.00;30.30;;;;;;5084684;28;20095;-65
2021/07/02 02:52:27;;;;;;;24.02;2.63;;;38.70;31.30;;;;;;5082600;28;20069;-66
2021/07/02 02:54:53;;;;;;;13.65;2.33;;;38.70;31.10;;;;;;5082446;28;20112;-65
2021/07/02 02:57:20;;;;;;;15.18;2.05;;;38.60;31.60;;;;;;5085464;28;20526;-66
2021/07/02 02:59:46;;;;;;;17.73;2.30;;;38.50;31.90;;;;;;5084957;28;20172;-65
2021/07/02 03:02:13;;;;;;;11.70;2.45;;;38.50;55.10;;;;;;5084834;28;20073;-64
2021/07/02 03:04:39;;;;;;;18.77;2.70;;;38.30;32.30;;;;;;5079928;28;20117;-64
2021/07/02 03:07:06;;;;;;;18.13;2.58;;;38.40;32.40;;;;;;5082839;28;20072;-64
2021/07/02 03:09:33;;;;;;;10.45;1.95;;;38.20;32.40;;;;;;5083508;28;21510;-64
2021/07/02 03:12:00;;;;;;;11.65;2.15;;;38.10;33.30;;;;;;5082368;28;20102;-64
2021/07/02 03:14:27;;;;;;;14.43;1.88;;;37.90;32.70;;;;;;5083289;28;20112;-64
2021/07/02 03:16:54;;;;;;;15.90;1.95;;;37.90;32.80;;;;;;5077005;28;20096;-65
2021/07/02 03:19:20;;;;;;;10.55;1.88;;;37.80;32.80;;;;;;5075927;28;20073;-66
2021/07/02 03:21:48;;;;;;;9.15;2.05;;;37.80;32.70;;;;;;5083997;28;20073;-67
2021/07/02 03:24:15;;;;;;;18.55;2.00;;;37.50;33.00;;;;;;5085231;28;20065;-65
2021/07/02 03:26:41;;;;;;;12.52;1.90;;;37.50;33.10;;;;;;5083269;28;20092;-68
2021/07/02 03:29:08;;;;;;;11.95;1.80;;;37.40;33.40;;;;;;5083840;28;20118;-66
2021/07/02 03:31:35;;;;;;;7.45;1.77;;;37.30;33.60;;;;;;5079469;28;20100;-68
2021/07/02 03:34:02;;;;;;;10.27;1.85;;;37.20;33.80;;;;;;5082413;28;20498;-66
2021/07/02 03:36:29;;;;;;;22.70;2.00;;;37.20;34.00;;;;;;5086256;28;20073;-65
2021/07/02 03:38:55;;;;;;;14.27;2.30;;;37.20;33.90;;;;;;5081388;28;20076;-65
2021/07/02 03:41:22;;;;;;;10.00;1.90;;;37.10;33.90;;;;;;5084052;28;20112;-66
2021/07/02 03:43:49;;;;;;;12.68;2.33;;;37.10;34.10;;;;;;5081044;28;20123;-66
2021/07/02 03:46:15;;;;;;;13.95;1.90;;;37.00;34.30;;;;;;5085226;28;20589;-67
2021/07/02 03:48:42;;;;;;;8.35;1.90;;;36.90;34.60;;;;;;5085183;28;20089;-66
2021/07/02 03:51:08;;;;;;;13.55;2.20;;;36.80;34.90;;;;;;5085632;28;20158;-66
2021/07/02 03:53:35;;;;;;;16.27;2.55;;;36.70;35.40;;;;;;5082776;28;20065;-67
2021/07/02 03:56:01;;;;;;;15.70;2.60;;;36.80;35.60;;;;;;5082712;28;20076;-66
2021/07/02 03:58:28;;;;;;;12.20;2.80;;;36.70;36.20;;;;;;5077591;28;20548;-65
2021/07/02 04:00:55;;;;;;;13.63;2.13;;;36.60;36.60;;;;;;5083794;28;20072;-66
2021/07/02 04:03:21;;;;;;;17.55;2.47;;;36.50;37.00;;;;;;5085876;28;20069;-67
2021/07/02 04:05:48;;;;;;;21.40;3.03;;;36.50;37.30;;;;;;5087987;28;20126;-67
2021/07/02 04:08:14;;;;;;;18.67;3.22;;;36.30;37.70;;;;;;5085090;28;20545;-66
2021/07/02 04:10:41;;;;;;;14.57;3.22;;;36.20;38.20;;;;;;5086531;28;20100;-66
2021/07/02 04:13:07;;;;;;;16.63;3.83;;;36.10;38.50;;;;;;5090940;28;20076;-65
2021/07/02 04:15:34;;;;;;;16.80;4.13;;;36.20;38.70;;;;;;5088661;28;20084;-66
2021/07/02 04:18:01;;;;;;;21.42;4.47;;;36.00;39.10;;;;;;5089362;28;20073;-67
2021/07/02 04:20:28;;;;;;;26.17;4.45;;;36.00;39.50;;;;;;5089105;28;20069;-66
2021/07/02 04:22:54;;;;;;;31.55;4.53;;;36.00;39.80;;;;;;5088035;28;20075;-67
2021/07/02 04:25:21;;;;;;;25.15;4.20;;;35.90;40.00;;;;;;5086519;28;20061;-66
2021/07/02 04:27:47;;;;;;;24.20;4.70;;;35.80;40.20;;;;;;5090396;28;20142;-66
2021/07/02 04:30:14;;;;;;;17.23;4.10;;;35.80;40.40;;;;;;5084733;28;20116;-66
2021/07/02 04:32:43;;;;;;;23.52;3.38;;;35.80;40.40;;;;;;5083154;28;20073;-69
2021/07/02 04:35:10;;;;;;;17.02;3.95;;;35.80;40.60;;;;;;5085174;28;20480;-70
2021/07/02 04:37:38;;;;;;;25.63;4.32;;;35.70;40.40;;;;;;5084581;28;20096;-69
2021/07/02 04:40:06;;;;;;;21.85;4.22;;;35.50;40.60;;;;;;5083965;28;20131;-71
2021/07/02 04:42:33;;;;;;;14.48;3.67;;;35.40;40.60;;;;;;5084340;28;20121;-70
2021/07/02 04:45:00;;;;;;;20.55;4.00;;;35.30;40.80;;;;;;5087949;28;20080;-69
2021/07/02 04:47:27;;;;;;;23.70;4.05;;;35.30;41.10;;;;;;5082506;28;20089;-72
2021/07/02 04:49:55;;;;;;;20.92;3.70;;;35.20;41.30;;;;;;5088094;28;20564;-71
2021/07/02 04:52:22;;;;;;;19.02;3.45;;;35.20;41.60;;;;;;5089378;28;20144;-70
2021/07/02 04:54:48;;;;;;;18.70;3.70;;;35.10;41.90;;;;;;5068728;28;20089;-72
2021/07/02 04:57:16;;;;;;;22.60;3.75;;;35.10;42.00;;;;;;5089236;28;20045;-71
2021/07/02 04:59:45;;;;;;;18.77;3.92;;;35.00;42.20;;;;;;5072176;28;20176;-70
2021/07/02 05:02:12;;;;;;;14.75;3.50;;;35.00;42.50;;;;;;5084441;28;20077;-70
2021/07/02 05:04:39;;;;;;;22.08;4.45;;;34.90;42.80;;;;;;5089128;28;20072;-71
2021/07/02 05:07:07;;;;;;;22.30;4.35;;;34.80;43.00;;;;;;5085431;28;20076;-71
2021/07/02 05:09:35;;;;;;;21.17;4.20;;;34.80;43.50;;;;;;5080806;28;20088;-74
2021/07/02 05:12:03;;;;;;;20.35;4.05;;;34.80;42.40;;;;;;5070581;28;20119;-66
2021/07/02 05:14:30;;;;;;;27.75;4.63;;;34.80;42.90;;;;;;5082369;28;20121;-66
2021/07/02 05:16:57;;;;;;;15.15;3.60;;;34.80;42.80;;;;;;5084000;28;20118;-65
2021/07/02 05:19:23;;;;;;;21.90;3.13;;;34.80;42.80;;;;;;5087462;28;20073;-66
2021/07/02 05:21:49;;;;;;;15.93;3.22;;;34.80;42.80;;;;;;5087879;28;20103;-66
2021/07/02 05:24:16;;;;;;;8.10;3.10;;;34.80;42.90;;;;;;5088015;28;20077;-65
2021/07/02 05:26:42;;;;;;;13.00;3.90;;;34.80;43.00;;;;;;5084125;28;20573;-66
2021/07/02 05:29:09;;;;;;;15.05;4.10;;;34.70;43.40;;;;;;5085049;28;20499;-67
2021/07/02 05:31:36;;;;;;;12.05;3.95;;;34.70;43.30;;;;;;5084785;28;20069;-66
2021/07/02 05:34:02;;;;;;;20.42;4.90;;;34.70;44.30;;;;;;5084208;28;20111;-66
2021/07/02 05:36:29;;;;;;;11.93;4.00;;;34.70;44.00;;;;;;5088534;28;20256;-67
2021/07/02 05:38:55;;;;;;;13.57;4.63;;;34.60;44.30;;;;;;5090548;28;20079;-65
2021/07/02 05:41:22;;;;;;;14.05;4.25;;;34.60;44.20;;;;;;5084432;28;20100;-67
2021/07/02 05:43:49;;;;;;;10.15;3.47;;;34.60;44.30;;;;;;5085838;28;20188;-66
2021/07/02 05:46:16;;;;;;;10.63;3.63;;;34.50;44.10;;;;;;5083525;28;20438;-67
2021/07/02 05:48:42;;;;;;;13.25;3.63;;;34.40;44.20;;;;;;5087889;28;20092;-66
2021/07/02 05:51:09;;;;;;;14.43;3.55;;;34.40;44.50;;;;;;5086307;28;20133;-67
2021/07/02 05:53:35;;;;;;;17.50;3.75;;;34.40;44.40;;;;;;5080037;28;20541;-67
2021/07/02 05:56:02;;;;;;;13.80;4.45;;;34.40;44.30;;;;;;5082321;28;20199;-69
2021/07/02 05:58:28;;;;;;;18.48;4.38;;;34.40;44.20;;;;;;5087685;28;20584;-67
2021/07/02 06:00:55;;;;;;;15.10;4.22;;;34.40;44.50;;;;;;5082708;28;24229;-67
2021/07/02 06:03:21;;;;;;;14.85;4.50;;;34.30;44.50;;;;;;5085809;28;20091;-69
2021/07/02 06:05:48;;;;;;;17.63;5.28;;;34.20;44.80;;;;;;5085521;28;20494;-67
2021/07/02 06:08:16;;;;;;;20.58;4.93;;;34.30;45.00;;;;;;5084457;28;20077;-67
2021/07/02 06:10:42;;;;;;;15.43;3.88;;;34.20;45.10;;;;;;5082651;28;20096;-67
2021/07/02 06:13:09;;;;;;;15.25;4.18;;;34.20;45.40;;;;;;5082883;28;20433;-68
2021/07/02 06:15:35;;;;;;;16.40;3.67;;;34.10;45.90;;;;;;5085198;28;20112;-67
2021/07/02 06:18:07;;;;;;;17.75;3.67;;;34.10;46.10;;;;;;5089296;28;20073;-67
2021/07/02 06:20:35;;;;;;;10.35;4.00;;;34.10;46.40;;;;;;5080065;28;20445;-69
2021/07/02 06:23:01;;;;;;;16.15;3.80;;;34.00;46.80;;;;;;5082387;28;20595;-69
2021/07/02 06:25:28;;;;;;;12.00;3.97;;;33.90;47.00;;;;;;5088656;28;20158;-68
2021/07/02 06:27:54;;;;;;;11.82;3.80;;;33.90;47.20;;;;;;5085906;28;20085;-67
2021/07/02 06:30:21;;;;;;;18.67;3.05;;;33.80;47.70;;;;;;5084995;28;20092;-66
2021/07/02 06:32:47;;;;;;;11.70;3.13;;;33.80;47.90;;;;;;5085732;28;20556;-67
2021/07/02 06:35:14;;;;;;;10.90;3.08;;;33.70;47.90;;;;;;5087381;28;20068;-66
2021/07/02 06:37:48;;;;;;;18.15;3.15;;;33.70;47.90;;;;;;5084058;28;20076;-67
2021/07/02 06:40:15;;;;;;;14.38;4.43;;;33.70;48.10;;;;;;5084536;28;20065;-68
2021/07/02 06:42:42;;;;;;;12.80;4.05;;;33.60;48.20;;;;;;5083249;28;20068;-67
2021/07/02 06:45:11;;;;;;;16.55;5.05;;;33.60;48.40;;;;;;5077665;28;20543;-66
2021/07/02 06:47:56;;;;;;;9.35;4.30;;;33.60;48.70;;;;;;5081600;28;20106;-66
2021/07/02 06:50:35;;;;;;;12.23;4.15;;;33.60;48.70;;;;;;5083258;28;20146;-67
2021/07/02 06:53:03;;;;;;;14.23;4.18;;;33.60;48.90;;;;;;5077891;28;20068;-68
2021/07/02 06:55:30;;;;;;;15.35;4.63;;;33.50;49.00;;;;;;5080901;28;20072;-66
2021/07/02 06:57:57;;;;;;;17.95;6.32;;;33.50;49.10;;;;;;5082154;28;20399;-65
2021/07/02 07:00:25;;;;;;;15.88;5.70;;;33.40;49.30;;;;;;5082492;28;20461;-66
2021/07/02 07:02:51;;;;;;;17.02;5.63;;;33.40;49.40;;;;;;5083319;28;20103;-62
2021/07/02 07:05:18;;;;;;;13.13;4.55;;;33.50;49.90;;;;;;5081031;28;20077;-62
2021/07/02 07:07:46;;;;;;;27.02;5.80;;;33.70;49.20;;;;;;5078939;28;20083;-62
2021/07/02 07:10:12;;;;;;;21.15;5.13;;;34.00;48.50;;;;;;5078065;28;20101;-62
2021/07/02 07:12:39;;;;;;;14.57;4.82;;;34.10;48.10;;;;;;5085544;28;20605;-59
2021/07/02 07:15:08;;;;;;;16.45;5.15;;;34.20;48.30;;;;;;5083423;28;20103;-60
2021/07/02 07:17:35;;;;;;;21.17;5.25;;;34.40;47.90;;;;;;5082453;28;20130;-60
2021/07/02 07:20:03;;;;;;;16.70;5.03;;;34.50;47.70;;;;;;5083626;28;20510;-61
2021/07/02 07:22:31;;;;;;;20.27;5.13;;;34.60;47.50;;;;;;5083975;28;20104;-61
2021/07/02 07:24:58;;;;;;;14.20;5.13;;;34.50;47.50;;;;;;5081039;28;20115;-62
2021/07/02 07:27:24;;;;;;;13.77;4.57;;;34.40;47.70;;;;;;5084854;28;20081;-63
2021/07/02 07:29:51;;;;;;;22.90;4.63;;;34.30;48.10;;;;;;5082388;28;20096;-62
2021/07/02 07:32:17;;;;;;;16.08;4.07;;;34.30;48.20;;;;;;5083344;28;20107;-62
2021/07/02 07:37:19;;;;;;;18.80;4.78;;;34.30;48.30;;;;;;5078115;28;20550;-62
2021/07/02 07:39:49;;;;;;;13.40;3.42;;;34.20;48.80;;;;;;5079610;28;20065;-61
2021/07/02 07:42:17;;;;;;;12.88;3.95;;;34.00;49.20;;;;;;5082149;28;20204;-61
2021/07/02 07:44:43;;;;;;;12.68;2.85;;;33.80;50.20;;;;;;5082029;28;20072;-61
2021/07/02 07:47:10;;;;;;;13.05;3.03;;;33.80;50.20;;;;;;5081729;28;20071;-61
2021/07/02 07:49:37;;;;;;;10.95;3.08;;;33.80;50.70;;;;;;5081702;28;20100;-61
2021/07/02 07:54:40;;;;;;;14.05;3.17;;;33.60;51.60;;;;;;5082495;28;20492;-61
2021/07/02 07:57:07;;;;;;;16.33;2.97;;;33.40;52.00;;;;;;5084186;28;20075;-59
2021/07/02 07:59:35;;;;;;;6.25;2.60;;;33.00;53.50;;;;;;5083081;28;20084;-62
2021/07/02 08:02:01;;;;;;;16.17;3.75;;;33.20;54.20;;;;;;5085284;28;20075;-62
2021/07/02 08:04:28;;;;;;;14.02;4.32;;;33.00;54.60;;;;;;5083853;28;20076;-61
2021/07/02 08:06:54;;;;;;;23.50;5.40;;;33.00;55.30;;;;;;5080894;28;20518;-59
2021/07/02 08:09:21;;;;;;;18.33;5.45;;;32.90;56.00;;;;;;5082315;28;20546;-60
2021/07/02 08:11:48;;;;;;;14.77;4.25;;;32.90;56.70;;;;;;5087055;28;20081;-62
2021/07/02 08:14:14;;;;;;;14.05;3.97;;;32.90;56.80;;;;;;5084305;28;20136;-59
2021/07/02 08:16:42;;;;;;;15.23;2.92;;;32.80;57.20;;;;;;5082840;28;20591;-61
2021/07/02 08:19:08;;;;;;;10.65;2.90;;;32.60;58.80;;;;;;5083242;28;20160;-58
2021/07/02 08:21:35;;;;;;;12.13;2.63;;;32.50;58.90;;;;;;5086494;28;20109;-61
2021/07/02 08:24:02;;;;;;;8.05;2.97;;;32.40;60.10;;;;;;5083245;28;20517;-61
2021/07/02 08:26:28;;;;;;;11.35;2.83;;;32.40;61.20;;;;;;5080459;28;20083;-60
2021/07/02 08:31:39;;;;;;;25.17;5.95;;;32.40;63.10;;;;;;5083054;28;20641;-62
2021/07/02 08:34:06;;;;;;;20.65;5.90;;;32.40;65.10;;;;;;5084301;28;20100;-60
2021/07/02 08:36:33;;;;;;;19.02;6.38;;;32.30;66.60;;;;;;5080366;28;20077;-61
2021/07/02 08:38:59;;;;;;;23.20;5.53;;;32.20;67.80;;;;;;5080296;28;20156;-61
2021/07/02 08:41:26;;;;;;;16.23;4.00;;;32.10;69.20;;;;;;5080032;28;20600;-63
2021/07/02 08:43:52;;;;;;;13.27;2.95;;;31.90;70.60;;;;;;5083252;28;20080;-61
2021/07/02 08:46:22;;;;;;;8.68;2.58;;;31.70;71.80;;;;;;5081057;28;20127;-60
2021/07/02 08:48:50;;;;;;;9.02;2.40;;;31.70;73.00;;;;;;5086311;28;20096;-60
2021/07/02 08:51:17;;;;;;;8.68;2.55;;;31.60;74.20;;;;;;5082108;28;20073;-60
2021/07/02 08:53:44;;;;;;;8.40;2.05;;;31.50;75.40;;;;;;5085521;28;20071;-60
2021/07/02 08:56:10;;;;;;;10.43;2.17;;;31.40;76.50;;;;;;5087045;28;20436;-60
2021/07/02 08:58:37;;;;;;;9.70;1.88;;;31.40;76.90;;;;;;5086880;28;20064;-58
2021/07/02 09:01:07;;;;;;;9.93;1.80;;;31.50;77.00;;;;;;5087086;28;20441;-60
2021/07/02 09:03:36;;;;;;;8.00;2.30;;;31.50;77.30;;;;;;5085375;28;20073;-63
2021/07/02 09:06:17;;;;;;;8.02;1.80;;;31.50;77.50;;;;;;5084809;28;20073;-61
2021/07/02 09:09:06;;;;;;;12.63;2.42;;;31.30;78.40;;;;;;5085711;28;20121;-60
2021/07/02 09:11:36;;;;;;;6.97;1.75;;;31.20;80.10;;;;;;5086402;28;20087;-59
2021/07/02 09:14:04;;;;;;;8.18;1.90;;;31.20;81.60;;;;;;5085177;28;20097;-59
2021/07/02 09:16:40;;;;;;;10.63;2.20;;;31.10;82.80;;;;;;5088309;28;20073;-59
2021/07/02 09:19:28;;;;;;;9.85;1.85;;;30.90;85.00;;;;;;5088067;28;20076;-62
2021/07/02 09:22:15;;;;;;;6.53;1.77;;;30.80;86.90;;;;;;5084838;28;20543;-61
2021/07/02 09:24:44;;;;;;;7.28;1.80;;;30.80;88.30;;;;;;5086135;28;20576;-61
2021/07/02 09:27:33;;;;;;;10.80;2.08;;;30.80;89.00;;;;;;5082968;28;20077;-60
2021/07/02 09:30:05;;;;;;;11.13;2.00;;;30.70;90.70;;;;;;5082135;28;20104;-59
2021/07/02 09:32:33;;;;;;;16.13;2.70;;;30.80;90.90;;;;;;5085842;28;20521;-60
2021/07/02 09:35:02;;;;;;;16.60;2.47;;;30.80;91.00;;;;;;5085488;28;20219;-61
2021/07/02 09:37:39;;;;;;;11.35;2.60;;;30.70;91.60;;;;;;5087572;28;20083;-60
2021/07/02 09:40:22;;;;;;;10.10;2.10;;;30.60;92.00;;;;;;5081559;28;20132;-61
2021/07/02 09:42:58;;;;;;;7.32;2.28;;;30.60;92.60;;;;;;5082812;28;20080;-61
2021/07/02 09:45:26;;;;;;;10.13;2.15;;;30.60;92.30;;;;;;5082281;28;20064;-60
2021/07/02 09:47:53;;;;;;;11.85;2.30;;;30.60;92.40;;;;;;5082416;28;20092;-57
2021/07/02 09:50:29;;;;;;;12.20;2.13;;;30.30;93.10;;;;;;5087692;28;20119;-60
2021/07/02 09:53:00;;;;;;;;;;;30.30;93.70;;;;;;5086877;28;20083;-57
2021/07/02 09:55:29;;;;;;;10.68;2.13;;;30.30;93.50;;;;;;5086730;28;20017;-61
2021/07/02 09:58:14;;;;;;;12.98;2.50;;;30.40;93.20;;;;;;5082278;28;20103;-60
2021/07/02 10:00:44;;;;;;;12.32;2.33;;;30.20;93.20;;;;;;5081229;28;20378;-61
2021/07/02 10:03:11;;;;;;;8.93;2.17;;;30.30;93.30;;;;;;5082579;28;20077;-60
2021/07/02 10:05:53;;;;;;;8.15;2.20;;;30.30;93.00;;;;;;5084132;28;20077;-58
2021/07/02 10:08:24;;;;;;;14.18;2.35;;;30.20;93.40;;;;;;5082831;28;20084;-61
2021/07/02 10:10:52;;;;;;;10.98;2.28;;;30.10;93.50;;;;;;5083930;28;20554;-60
2021/07/02 10:13:22;;;;;;;7.65;2.00;;;30.20;93.40;;;;;;5083334;28;20151;-62
2021/07/02 10:15:51;;;;;;;9.57;2.58;;;29.60;94.20;;;;;;5084019;28;20085;-62
2021/07/02 10:18:17;;;;;;;11.52;2.42;;;30.10;92.80;;;;;;5080659;28;20072;-61
2021/07/02 10:20:46;;;;;;;9.77;2.53;;;30.10;93.20;;;;;;5079915;28;20069;-63
2021/07/02 10:23:16;;;;;;;10.65;2.40;;;30.20;93.20;;;;;;5082743;28;20077;-59
2021/07/02 10:25:46;;;;;;;14.00;2.67;;;30.20;92.90;;;;;;5086464;28;20514;-59
2021/07/02 10:28:13;;;;;;;12.60;2.50;;;30.20;92.40;;;;;;5084031;28;20155;-62
2021/07/02 10:30:41;;;;;;;9.23;2.10;;;30.20;93.00;;;;;;5084830;28;20100;-61
2021/07/02 10:33:08;;;;;;;8.23;2.28;;;30.10;93.20;;;;;;5079885;28;20141;-59
2021/07/02 10:35:36;;;;;;;11.48;2.30;;;30.00;95.10;;;;;;5083768;28;20504;-58
2021/07/02 10:38:04;;;;;;;7.50;2.15;;;30.00;93.40;;;;;;5083426;28;20069;-59
2021/07/02 10:40:39;;;;;;;9.15;2.17;;;30.00;93.50;;;;;;5085705;28;20144;-60
2021/07/02 10:43:09;;;;;;;11.07;2.60;;;29.90;93.80;;;;;;5084054;28;20087;-59
2021/07/02 10:45:37;;;;;;;9.85;2.42;;;29.90;94.00;;;;;;5083446;28;20069;-59
2021/07/02 10:48:04;;;;;;;10.45;2.60;;;29.90;93.60;;;;;;5079411;28;20100;-57
2021/07/02 10:50:43;;;;;;;15.00;3.45;;;29.80;93.90;;;;;;5084500;28;20101;-59
2021/07/02 10:53:30;;;;;;;13.18;2.88;;;29.80;93.80;;;;;;5080580;28;20121;-58
2021/07/02 10:55:58;;;;;;;12.38;2.80;;;29.70;93.80;;;;;;5085142;28;20084;-61
2021/07/02 10:58:44;;;;;;;8.48;2.80;;;29.80;93.80;;;;;;5081849;28;20100;-60
2021/07/02 11:01:12;;;;;;;11.45;2.85;;;29.70;93.60;;;;;;5082253;28;20077;-58
2021/07/02 11:03:38;;;;;;;13.75;2.53;;;29.70;93.60;;;;;;5083973;28;20072;-59
2021/07/02 11:06:38;;;;;;;9.38;2.50;;;29.70;93.50;;;;;;5082526;28;20084;-61
2021/07/02 11:09:06;;;;;;;8.48;2.63;;;29.60;93.20;;;;;;5077059;28;20100;-61
2021/07/02 11:12:07;;;;;;;12.70;3.03;;;29.70;93.40;;;;;;5086898;28;20072;-59
2021/07/02 11:14:54;;;;;;;9.93;2.95;;;29.60;93.10;;;;;;5074335;28;20104;-60
2021/07/02 11:17:25;;;;;;;11.05;2.90;;;29.50;93.10;;;;;;5082300;28;20464;-61
2021/07/02 11:20:17;;;;;;;9.68;2.60;;;29.50;93.00;;;;;;5082402;28;20078;-61
2021/07/02 11:22:57;;;;;;;15.43;3.10;;;29.60;93.30;;;;;;5081037;28;20069;-59
2021/07/02 11:25:58;;;;;;;12.68;2.80;;;29.50;92.60;;;;;;5083270;28;20518;-60
2021/07/02 11:28:44;;;;;;;9.43;2.55;;;29.40;92.70;;;;;;5081442;28;20080;-57
2021/07/02 11:31:12;;;;;;;9.00;2.15;;;29.30;93.00;;;;;;5085420;28;20145;-59
2021/07/02 11:33:40;;;;;;;11.88;2.45;;;29.10;99.90;;;;;;5080847;28;20112;-59
2021/07/02 11:36:10;;;;;;;14.00;2.47;;;29.10;99.90;;;;;;5081195;28;20077;-61
2021/07/02 11:38:48;;;;;;;9.23;2.83;;;29.40;99.90;;;;;;5083363;28;20068;-60
2021/07/02 11:41:31;;;;;;;8.48;2.17;;;29.30;93.30;;;;;;5081512;28;20195;-59
2021/07/02 11:44:01;;;;;;;15.52;2.55;;;29.40;93.00;;;;;;5084747;28;20533;-59
2021/07/02 11:46:29;;;;;;;10.80;2.78;;;29.40;93.10;;;;;;5079308;28;20072;-61
2021/07/02 11:48:57;;;;;;;12.27;2.90;;;29.40;93.20;;;;;;5084739;28;20340;-56
2021/07/02 11:51:29;;;;;;;19.83;3.10;;;29.40;93.00;;;;;;5083570;28;20146;-61
2021/07/02 11:54:02;;;;;;;11.98;2.42;;;29.40;93.00;;;;;;5085206;28;20073;-60
2021/07/02 11:56:37;;;;;;;16.92;3.15;;;29.40;93.00;;;;;;5084101;28;20542;-62
2021/07/02 11:59:11;;;;;;;11.07;2.92;;;29.40;93.00;;;;;;5082798;28;20084;-60
2021/07/02 12:01:41;;;;;;;11.68;2.60;;;29.40;93.20;;;;;;5085765;28;20463;-61
2021/07/02 12:04:19;;;;;;;12.82;2.67;;;29.30;93.60;;;;;;5078774;28;20142;-61
2021/07/02 12:06:50;;;;;;;13.07;2.97;;;29.30;93.90;;;;;;5080087;28;20151;-62
2021/07/02 12:09:27;;;;;;;11.88;2.90;;;29.30;94.20;;;;;;5082770;28;20092;-60
2021/07/02 12:11:55;;;;;;;;;;;29.30;93.90;;;;;;5080018;28;20070;-61
2021/07/02 12:14:26;;;;;;;14.27;2.90;;;29.30;93.80;;;;;;5084049;28;19953;-61
2021/07/02 12:16:54;;;;;;;12.43;2.50;;;29.10;94.40;;;;;;5081618;28;20112;-62
2021/07/02 12:19:26;;;;;;;13.77;3.30;;;29.10;94.30;;;;;;5083208;28;20078;-62
2021/07/02 12:21:55;;;;;;;13.63;2.75;;;29.10;94.40;;;;;;5084448;28;20206;-61
2021/07/02 12:24:25;;;;;;;13.43;3.33;;;29.10;94.70;;;;;;5087449;28;20076;-61
2021/07/02 12:26:56;;;;;;;16.25;2.92;;;29.10;94.70;;;;;;5088578;28;20061;-59
2021/07/02 12:29:32;;;;;;;12.90;2.72;;;29.20;95.00;;;;;;5085022;28;20100;-62
2021/07/02 12:32:07;;;;;;;14.02;2.22;;;29.30;94.90;;;;;;5086603;28;20175;-60
2021/07/02 12:34:38;;;;;;;12.35;2.72;;;29.20;95.20;;;;;;5087388;28;20542;-62
2021/07/02 12:37:07;;;;;;;14.02;3.00;;;29.20;95.00;;;;;;5087356;28;20080;-62
2021/07/02 12:39:44;;;;;;;13.95;3.05;;;29.20;95.30;;;;;;5088782;28;20077;-61
2021/07/02 12:42:13;;;;;;;16.73;2.97;;;29.10;95.30;;;;;;5082613;28;20113;-63
2021/07/02 12:44:45;;;;;;;11.00;2.60;;;29.00;95.60;;;;;;5087765;28;20080;-62
2021/07/02 12:47:12;;;;;;;18.55;3.08;;;29.00;96.00;;;;;;5084633;28;20077;-62
2021/07/02 12:50:02;;;;;;;13.95;2.72;;;28.90;96.60;;;;;;5086359;28;20241;-61
2021/07/02 12:55:15;;;;;;;12.73;3.10;;;29.00;96.70;;;;;;5089104;28;20069;-61
2021/07/02 12:57:49;;;;;;;17.52;5.25;;;28.80;97.30;;;;;;5087574;28;20084;-59